TimeEDT,TemperatureF,Dew PointF,Humidity,Sea Level PressureIn,VisibilityMPH,Wind Direction,Wind SpeedMPH,Gust SpeedMPH,PrecipitationIn,Events,Conditions,WindDirDegrees,DateUTC
12:53 AM,73.9,71.1,91,30.14,10.0,ESE,3.5,-,N/A,,Clear,110,2013-07-18 04:53:00
1:53 AM,73.9,71.1,91,30.13,10.0,Calm,Calm,-,N/A,,Clear,0,2013-07-18 05:53:00
2:53 AM,73.9,71.1,91,30.12,10.0,Calm,Calm,-,N/A,,Clear,0,2013-07-18 06:53:00
3:53 AM,75.0,72.0,90,30.12,10.0,North,3.5,-,N/A,,Clear,10,2013-07-18 07:53:00
4:53 AM,75.0,72.0,90,30.11,10.0,Calm,Calm,-,N/A,,Clear,0,2013-07-18 08:53:00
5:53 AM,75.0,72.0,90,30.12,10.0,NNE,3.5,-,N/A,,Clear,20,2013-07-18 09:53:00
6:19 AM,75.2,73.4,94,30.12,10.0,NNE,3.5,-,N/A,,Mostly Cloudy,20,2013-07-18 10:19:00
6:34 AM,75.2,73.4,94,30.12,10.0,NNE,4.6,-,N/A,,Scattered Clouds,20,2013-07-18 10:34:00
6:53 AM,75.0,73.0,94,30.14,10.0,NNE,4.6,-,N/A,,Clear,20,2013-07-18 10:53:00
7:53 AM,77.0,73.9,90,30.14,10.0,ENE,4.6,-,N/A,,Clear,60,2013-07-18 11:53:00
8:53 AM,79.0,73.9,84,30.15,10.0,ENE,8.1,-,N/A,,Clear,70,2013-07-18 12:53:00
9:53 AM,80.1,73.9,81,30.15,10.0,East,8.1,-,N/A,,Partly Cloudy,100,2013-07-18 13:53:00
10:53 AM,81.0,73.0,77,30.15,10.0,ESE,10.4,-,N/A,,Partly Cloudy,120,2013-07-18 14:53:00
11:53 AM,82.9,72.0,69,30.14,10.0,ESE,10.4,-,N/A,,Scattered Clouds,120,2013-07-18 15:53:00
12:53 PM,84.9,71.1,63,30.14,10.0,SE,11.5,-,N/A,,Scattered Clouds,140,2013-07-18 16:53:00
1:19 PM,84.2,71.6,66,30.13,10.0,SE,10.4,-,N/A,Thunderstorm,Thunderstorm,140,2013-07-18 17:19:00
1:39 PM,84.2,69.8,62,30.12,10.0,East,11.5,-,N/A,,Partly Cloudy,100,2013-07-18 17:39:00
1:53 PM,84.0,70.0,63,30.12,10.0,ESE,10.4,-,N/A,,Partly Cloudy,110,2013-07-18 17:53:00
2:53 PM,84.0,71.1,65,30.10,10.0,ESE,10.4,-,N/A,,Clear,120,2013-07-18 18:53:00
4:53 PM,84.0,70.0,63,30.08,10.0,East,11.5,-,0.00,,Partly Cloudy,100,2013-07-18 20:53:00
5:53 PM,84.0,70.0,63,30.09,10.0,ESE,11.5,-,N/A,,Scattered Clouds,120,2013-07-18 21:53:00
6:53 PM,77.0,71.1,82,30.10,10.0,SSE,18.4,27.6,0.01,,Mostly Cloudy,160,2013-07-18 22:53:00
7:53 PM,75.0,72.0,90,30.10,10.0,SSE,6.9,-,N/A,,Clear,150,2013-07-18 23:53:00
8:53 PM,75.9,70.0,82,30.11,10.0,Calm,Calm,-,N/A,,Clear,0,2013-07-19 00:53:00
9:53 PM,75.0,71.1,87,30.12,10.0,Calm,Calm,-,N/A,,Clear,0,2013-07-19 01:53:00
10:53 PM,75.0,71.1,87,30.12,10.0,Calm,Calm,-,N/A,,Clear,0,2013-07-19 02:53:00
11:53 PM,75.9,71.1,85,30.12,10.0,Calm,Calm,-,N/A,,Clear,0,2013-07-19 03:53:00